Time;durP1;ratioP1;P1;durP2;ratioP2;P2;SDS_P1;SDS_P2;PMS_P1;PMS_P2;Temp;Humidity;BMP_temperature;BMP_pressure;BME280_temperature;BME280_humidity;BME280_pressure;Samples;Min_cycle;Max_cycle;Signal;HPM_P1;HPM_P2
2021/12/14 00:01:45;;;;;;;33.70;17.40;;;;;;;-3.26;97.37;100896.69;6154582;23;20021;-75
2021/12/14 00:04:16;;;;;;;34.15;17.73;;;;;;;-3.29;96.96;100896.63;6155020;23;20049;-74
2021/12/14 00:06:43;;;;;;;34.20;17.33;;;;;;;-3.30;97.05;100900.00;6180321;23;20021;-75
2021/12/14 00:09:10;;;;;;;32.53;17.30;;;;;;;-3.34;96.64;100894.00;6154011;23;20644;-74
2021/12/14 00:17:24;;;;;;;28.73;15.90;;;;;;;-3.32;96.86;100889.78;6180901;23;20113;-75
2021/12/14 00:19:51;;;;;;;30.10;16.97;;;;;;;-3.35;96.58;100892.28;6154085;23;20048;-75
2021/12/14 00:22:32;;;;;;;29.27;15.52;;;;;;;-3.30;96.74;100898.31;6153854;23;20021;-75
2021/12/14 00:24:59;;;;;;;25.85;14.88;;;;;;;-3.34;96.62;100904.19;6181937;23;20017;-75
2021/12/14 00:27:26;;;;;;;29.23;13.65;;;;;;;-3.49;96.87;100886.06;6107361;23;20017;-74
2021/12/14 00:29:54;;;;;;;32.40;15.10;;;;;;;-3.39;96.69;100910.06;6131311;23;20075;-74
2021/12/14 00:32:23;;;;;;;24.58;14.00;;;;;;;-3.39;96.93;100907.50;6106664;23;20025;-75
2021/12/14 00:34:51;;;;;;;31.77;14.98;;;;;;;-3.40;96.68;100914.31;6130862;23;20025;-75
2021/12/14 00:37:20;;;;;;;28.00;16.10;;;;;;;-3.37;97.19;100919.47;6101901;23;20040;-74
2021/12/14 00:39:47;;;;;;;25.75;12.57;;;;;;;-3.43;96.90;100906.59;6149644;23;20021;-75
2021/12/14 00:42:14;;;;;;;18.52;12.20;;;;;;;-3.35;97.31;100915.25;6150113;23;20096;-76
2021/12/14 00:44:41;;;;;;;30.38;15.68;;;;;;;-3.38;97.16;100911.78;6151257;23;20021;-74
2021/12/14 00:47:07;;;;;;;30.17;15.52;;;;;;;-3.41;96.81;100912.59;6149093;23;20029;-74
2021/12/14 00:49:34;;;;;;;29.98;18.00;;;;;;;-3.44;96.87;100916.78;6124909;23;20365;-75
2021/12/14 00:52:00;;;;;;;27.55;15.75;;;;;;;-3.38;96.88;100916.91;6151850;23;20073;-75
2021/12/14 00:54:26;;;;;;;28.30;14.60;;;;;;;-3.32;96.88;100919.56;6100770;23;20100;-75
2021/12/14 00:56:53;;;;;;;30.75;14.93;;;;;;;-3.31;96.91;100917.03;6149536;23;20465;-76
2021/12/14 00:59:20;;;;;;;31.67;15.73;;;;;;;-3.34;96.94;100918.69;6124437;23;20018;-75
2021/12/14 01:02:07;;;;;;;32.75;16.98;;;;;;;-3.50;96.90;100909.03;6100264;23;20017;-75
2021/12/14 01:04:43;;;;;;;32.83;17.15;;;;;;;-3.44;96.89;100912.56;6149193;23;20017;-74
2021/12/14 01:07:09;;;;;;;36.97;18.75;;;;;;;-3.65;96.70;100891.72;6124206;23;20092;-74
2021/12/14 01:09:37;;;;;;;38.42;20.35;;;;;;;-3.54;97.00;100905.56;6148740;23;20059;-74
2021/12/14 01:12:09;;;;;;;42.75;18.73;;;;;;;-3.56;97.07;100897.00;6148598;23;20021;-74
2021/12/14 01:14:47;;;;;;;34.08;16.80;;;;;;;-3.48;97.28;100907.34;6077789;23;20017;-74
2021/12/14 01:17:25;;;;;;;36.13;18.42;;;;;;;-3.52;97.00;100908.13;6124399;23;20083;-75
2021/12/14 01:19:56;;;;;;;32.72;17.48;;;;;;;-3.57;97.07;100895.28;6126228;23;20119;-74
2021/12/14 01:22:45;;;;;;;42.43;20.73;;;;;;;-3.62;97.00;100907.09;6102720;23;20025;-74
2021/12/14 01:25:18;;;;;;;36.67;17.13;;;;;;;-3.65;96.80;100901.94;6131085;23;20021;-75
2021/12/14 01:27:54;;;;;;;29.20;16.40;;;;;;;-3.58;96.89;100913.97;6125399;23;20021;-75
2021/12/14 01:30:27;;;;;;;30.35;14.73;;;;;;;-3.53;96.76;100906.41;6150601;23;20116;-74
2021/12/14 01:32:54;;;;;;;33.20;18.25;;;;;;;-3.59;96.54;100907.13;6150731;23;20386;-74
2021/12/14 01:35:26;;;;;;;34.47;18.75;;;;;;;-3.63;97.07;100907.91;6149329;23;20092;-74
2021/12/14 01:38:45;;;;;;;31.70;17.85;;;;;;;-3.62;96.78;100907.09;6127253;23;20095;-74
2021/12/14 01:40:54;;;;;;;29.60;15.90;;;;;;;-3.65;96.71;100891.72;6142828;23;20013;-75
2021/12/14 01:43:58;;;;;;;35.08;17.40;;;;;;;-3.61;96.56;100892.63;6115028;23;20029;-75
2021/12/14 01:46:43;;;;;;;31.83;18.15;;;;;;;-3.58;96.67;100891.00;6134566;23;20406;-74
2021/12/14 01:49:35;;;;;;;37.17;16.17;;;;;;;-3.63;96.59;100900.25;6097834;23;20017;-75
2021/12/14 01:52:30;;;;;;;34.78;18.13;;;;;;;-3.61;96.54;100901.16;6142479;23;20017;-74
2021/12/14 01:55:04;;;;;;;32.42;17.92;;;;;;;-3.61;96.56;100897.75;6148457;23;20024;-75
2021/12/14 01:57:31;;;;;;;27.02;16.20;;;;;;;-3.59;96.73;100896.94;6124290;23;20139;-75
2021/12/14 01:59:58;;;;;;;34.20;17.10;;;;;;;-3.60;96.84;100885.03;6100489;23;20025;-75
2021/12/14 02:02:41;;;;;;;32.10;16.55;;;;;;;-3.63;96.57;100879.84;6128976;23;20246;-74
2021/12/14 02:05:49;;;;;;;32.28;16.35;;;;;;;-3.64;96.69;100882.38;6080799;23;20017;-75
2021/12/14 02:08:19;;;;;;;31.77;16.63;;;;;;;-3.65;96.96;100878.97;6104580;23;20020;-75
2021/12/14 02:10:50;;;;;;;33.38;17.20;;;;;;;-3.64;97.03;100880.69;6084127;23;20473;-75
2021/12/14 02:13:45;;;;;;;33.80;17.40;;;;;;;-3.68;96.95;100886.56;6094263;23;20084;-74
2021/12/14 02:16:17;;;;;;;30.02;14.35;;;;;;;-3.62;97.10;100891.78;6085675;23;20082;-73
2021/12/14 02:18:46;;;;;;;33.67;17.70;;;;;;;-3.64;97.01;100884.94;6105191;23;20018;-75
2021/12/14 02:21:12;;;;;;;31.90;16.55;;;;;;;-3.62;96.94;100881.56;6080082;23;20033;-73
2021/12/14 02:23:41;;;;;;;28.10;15.25;;;;;;;-3.63;97.08;100877.28;6100388;23;20021;-74
2021/12/14 02:26:09;;;;;;;32.80;17.60;;;;;;;-3.64;96.90;100877.28;6124354;23;20021;-75
2021/12/14 02:28:37;;;;;;;29.95;15.27;;;;;;;-3.62;97.27;100886.69;6078116;23;20028;-74
2021/12/14 02:31:07;;;;;;;30.73;16.30;;;;;;;-3.67;97.08;100873.00;6101400;23;20021;-74
2021/12/14 02:33:35;;;;;;;36.08;15.95;;;;;;;-3.67;97.02;100867.88;6126154;23;20022;-74
2021/12/14 02:36:14;;;;;;;31.02;18.27;;;;;;;-3.63;96.84;100884.94;6100312;23;20022;-75
2021/12/14 02:38:48;;;;;;;30.85;14.40;;;;;;;-3.76;96.93;100862.59;6134596;23;20084;-75
2021/12/14 02:41:15;;;;;;;30.92;15.75;;;;;;;-3.73;96.97;100867.78;6081658;23;20464;-74
2021/12/14 02:43:55;;;;;;;34.63;15.48;;;;;;;-3.63;96.92;100884.13;6085765;23;20104;-74
2021/12/14 02:46:40;;;;;;;31.67;16.35;;;;;;;-3.69;97.16;100872.94;6089954;23;20083;-73
2021/12/14 02:49:12;;;;;;;33.75;18.50;;;;;;;-3.67;96.99;100888.28;6084837;23;20020;-75
2021/12/14 02:52:10;;;;;;;31.95;16.48;;;;;;;-3.59;96.69;100890.97;6106724;23;20017;-75
2021/12/14 02:54:44;;;;;;;32.17;17.25;;;;;;;-3.65;96.64;100894.28;6128575;23;20016;-74
2021/12/14 02:57:14;;;;;;;27.35;15.65;;;;;;;-3.62;96.22;100907.09;6082158;23;20108;-76
2021/12/14 02:59:41;;;;;;;28.00;15.02;;;;;;;-3.63;96.63;100897.69;6104335;23;20025;-75
2021/12/14 03:02:21;;;;;;;27.30;15.20;;;;;;;-3.59;96.22;100896.94;6103385;23;20024;-74
2021/12/14 03:05:06;;;;;;;24.92;14.73;;;;;;;-3.65;96.15;100876.41;6135006;23;20120;-74
2021/12/14 03:07:57;;;;;;;23.48;14.00;;;;;;;-3.56;96.55;100899.53;6129044;23;20102;-74
2021/12/14 03:10:50;;;;;;;25.98;14.60;;;;;;;-3.61;96.39;100885.00;6108125;23;20531;-76
2021/12/14 03:13:16;;;;;;;27.35;15.10;;;;;;;-3.70;96.15;100873.75;6087784;23;20358;-74
2021/12/14 03:15:48;;;;;;;27.65;14.80;;;;;;;-3.63;96.16;100892.59;6106223;23;20017;-74
2021/12/14 03:18:17;;;;;;;28.98;15.30;;;;;;;-3.66;96.13;100884.06;6083588;23;20518;-74
2021/12/14 03:20:58;;;;;;;25.67;14.73;;;;;;;-3.71;96.15;100873.75;6106631;23;20051;-74
2021/12/14 03:23:31;;;;;;;33.45;17.05;;;;;;;-3.69;96.14;100874.63;6083658;23;20016;-74
2021/12/14 03:26:00;;;;;;;31.70;17.63;;;;;;;-3.77;96.29;100871.97;6082828;23;20027;-75
2021/12/14 03:28:51;;;;;;;31.45;15.50;;;;;;;-3.77;96.35;100871.97;6107124;23;20104;-78
2021/12/14 03:31:24;;;;;;;29.10;17.67;;;;;;;-3.69;96.25;100879.72;6132766;23;20104;-78
2021/12/14 03:33:54;;;;;;;25.20;13.75;;;;;;;-3.76;96.57;100862.59;6091692;23;20021;-80
2021/12/14 03:36:27;;;;;;;25.55;12.88;;;;;;;-3.70;96.29;100876.31;6070007;23;20020;-80
2021/12/14 03:39:08;;;;;;;32.63;14.10;;;;;;;-3.69;96.39;100885.69;6114515;23;20021;-80
2021/12/14 03:41:36;;;;;;;;;;;;;;;-3.67;96.35;100892.53;6116919;23;20020;-80
2021/12/14 03:44:32;;;;;;;21.77;12.27;;;;;;;-3.67;96.46;100880.63;6116466;23;20328;-81
2021/12/14 03:47:17;;;;;;;32.75;15.65;;;;;;;-3.84;96.22;100859.03;6114936;23;20021;-82
2021/12/14 03:49:49;;;;;;;33.83;15.40;;;;;;;-3.72;96.36;100890.75;6072326;23;20013;-82
2021/12/14 03:52:19;;;;;;;29.88;14.93;;;;;;;-3.71;96.34;100886.50;6119345;23;20504;-84
2021/12/14 03:54:47;;;;;;;29.58;16.67;;;;;;;-3.67;96.32;100880.63;6097542;23;20041;-81
2021/12/14 03:57:13;;;;;;;29.67;16.35;;;;;;;-3.71;96.12;100894.16;6145358;23;20097;-81
2021/12/14 03:59:41;;;;;;;32.60;15.13;;;;;;;-3.70;96.04;100883.13;6102032;23;20025;-80
2021/12/14 04:02:10;;;;;;;33.28;18.38;;;;;;;-3.93;95.70;100853.78;6098183;23;20013;-81
2021/12/14 04:04:57;;;;;;;31.92;16.65;;;;;;;-3.86;96.06;100876.84;6098472;23;20116;-81
2021/12/14 04:07:25;;;;;;;29.98;14.32;;;;;;;-3.79;96.14;100885.50;6125531;23;20032;-82
2021/12/14 04:10:05;;;;;;;30.45;14.52;;;;;;;-3.89;96.26;100869.16;6103627;23;20044;-82
2021/12/14 04:12:32;;;;;;;24.58;13.63;;;;;;;-3.75;96.17;100894.94;6121423;23;20028;-82
2021/12/14 04:14:58;;;;;;;26.83;13.82;;;;;;;-3.72;96.14;100905.19;6124162;23;20021;-80
2021/12/14 04:17:30;;;;;;;27.30;14.80;;;;;;;-3.68;96.24;100906.97;6099682;23;20092;-80
2021/12/14 04:19:57;;;;;;;23.02;12.55;;;;;;;-3.74;96.08;100892.41;6100881;23;20025;-81
2021/12/14 04:22:30;;;;;;;32.42;16.67;;;;;;;-3.73;95.89;100899.22;6144381;23;20127;-79
2021/12/14 04:25:00;;;;;;;28.55;14.85;;;;;;;-3.80;96.21;100891.44;6098686;23;20053;-82
2021/12/14 04:27:30;;;;;;;31.45;14.60;;;;;;;-3.75;96.11;100894.94;6099952;23;20078;-82
2021/12/14 04:29:56;;;;;;;33.70;15.30;;;;;;;-3.76;96.49;100893.19;6099154;23;20036;-82
2021/12/14 04:32:23;;;;;;;34.45;18.48;;;;;;;-3.78;96.58;100885.53;6097092;23;20024;-82
2021/12/14 04:34:50;;;;;;;34.15;17.15;;;;;;;-3.93;96.62;100872.50;6088574;23;20112;-82
2021/12/14 04:37:18;;;;;;;30.52;15.00;;;;;;;-3.97;96.55;100865.59;6121851;23;20013;-81
2021/12/14 04:51:59;;;;;;;35.58;19.63;;;;;;;-3.93;97.14;100869.94;6108423;23;20017;-75
2021/12/14 04:54:29;;;;;;;51.50;26.80;;;;;;;-3.71;97.03;100901.81;6061550;23;20020;-77
2021/12/14 04:56:57;;;;;;;42.05;23.67;;;;;;;-3.76;97.03;100885.53;6153654;23;20013;-76
2021/12/14 04:59:30;;;;;;;35.28;16.98;;;;;;;-3.84;96.99;100884.56;6131305;23;20027;-77
2021/12/14 05:02:11;;;;;;;32.30;18.95;;;;;;;-3.77;97.26;100907.66;6154318;23;20330;-79
2021/12/14 05:04:57;;;;;;;30.15;15.38;;;;;;;-3.78;97.44;100905.06;6113296;23;20027;-80
2021/12/14 05:10:04;;;;;;;32.92;16.08;;;;;;;-3.84;97.28;100898.16;6110545;23;20366;-80
2021/12/14 05:12:31;;;;;;;35.70;18.70;;;;;;;-3.86;97.17;100902.34;6106956;23;20017;-80
2021/12/14 05:15:15;;;;;;;29.92;15.50;;;;;;;-3.78;97.07;100925.47;6160003;23;20020;-80
2021/12/14 05:17:48;;;;;;;24.27;14.32;;;;;;;-3.90;97.30;100909.94;6108344;23;20013;-79
2021/12/14 05:20:15;;;;;;;40.78;17.17;;;;;;;-3.87;96.93;100921.06;6133137;23;20020;-76
2021/12/14 05:22:44;;;;;;;31.73;14.82;;;;;;;-3.98;96.90;100902.13;6084059;23;20115;-80
2021/12/14 05:25:25;;;;;;;33.93;14.43;;;;;;;-3.97;97.12;100901.31;6086167;23;20041;-78
2021/12/14 05:27:57;;;;;;;28.40;14.73;;;;;;;-4.07;97.25;100895.97;6154863;23;20016;-79
2021/12/14 05:30:27;;;;;;;34.10;16.38;;;;;;;-3.98;97.42;100893.59;6076594;23;20100;-79
2021/12/14 05:33:28;;;;;;;29.55;15.93;;;;;;;-3.82;97.10;100918.59;6122929;23;20017;-78
2021/12/14 05:36:01;;;;;;;37.15;17.15;;;;;;;-3.83;97.11;100922.00;6112633;23;20350;-83
2021/12/14 05:44:12;;;;;;;39.72;20.60;;;;;;;-3.92;97.00;100912.44;6106901;23;20055;-80
2021/12/14 05:46:57;;;;;;;28.92;15.85;;;;;;;-3.82;96.82;100931.34;6115479;23;20016;-81
2021/12/14 05:49:39;;;;;;;29.30;14.63;;;;;;;-3.95;96.74;100911.50;6119560;23;20017;-81
2021/12/14 05:52:12;;;;;;;41.53;17.25;;;;;;;-3.74;96.61;100940.88;6142591;23;20027;-82
2021/12/14 05:54:41;;;;;;;32.65;15.45;;;;;;;-3.83;96.75;100927.91;6119550;23;20013;-78
2021/12/14 05:57:12;;;;;;;35.42;17.83;;;;;;;-3.81;96.74;100927.97;6119141;23;20110;-78
2021/12/14 05:59:38;;;;;;;36.27;18.63;;;;;;;-3.83;96.74;100927.09;6113783;23;20487;-80
2021/12/14 06:02:06;;;;;;;27.98;14.30;;;;;;;-3.81;96.28;100925.41;6110066;23;20335;-80
2021/12/14 06:04:42;;;;;;;32.97;15.20;;;;;;;-3.74;96.88;100934.91;6132278;23;20519;-77
2021/12/14 06:07:10;;;;;;;26.98;15.75;;;;;;;-3.91;96.37;100900.56;6127667;23;20063;-80
2021/12/14 06:09:46;;;;;;;18.92;10.77;;;;;;;-3.85;96.66;100918.53;6084710;23;20017;-80
2021/12/14 06:12:31;;;;;;;34.00;17.73;;;;;;;-3.76;96.16;100939.97;6104425;23;20377;-80
2021/12/14 06:14:59;;;;;;;28.00;14.13;;;;;;;-3.78;96.27;100944.19;6104340;23;20393;-80
2021/12/14 06:17:31;;;;;;;25.30;14.20;;;;;;;-3.95;96.12;100907.28;6129863;23;20039;-81
2021/12/14 06:20:06;;;;;;;29.88;14.63;;;;;;;-3.67;96.38;100946.97;6104831;23;20536;-80
2021/12/14 06:22:34;;;;;;;28.27;15.77;;;;;;;-3.80;96.17;100922.03;6129020;23;20013;-78
2021/12/14 06:25:27;;;;;;;27.08;12.65;;;;;;;-3.81;96.21;100926.28;6112201;23;20025;-82
2021/12/14 06:28:24;;;;;;;29.73;13.93;;;;;;;-3.60;96.09;100948.81;6135383;23;20025;-79
2021/12/14 06:30:50;;;;;;;27.02;14.00;;;;;;;-3.67;95.55;100934.22;6104550;23;20017;-81
2021/12/14 06:33:16;;;;;;;31.10;15.85;;;;;;;-3.60;95.35;100946.25;6105148;23;20016;-80
2021/12/14 06:35:48;;;;;;;28.60;14.35;;;;;;;-3.52;95.51;100952.34;6153859;23;20043;-83
2021/12/14 06:41:11;;;;;;;24.88;13.55;;;;;;;-3.39;94.93;100950.91;6131475;23;20147;-79
2021/12/14 06:43:52;;;;;;;26.13;14.23;;;;;;;-3.38;94.95;100945.84;6104441;23;20040;-80
2021/12/14 06:46:29;;;;;;;28.65;13.95;;;;;;;-3.47;94.68;100927.81;6083568;23;20020;-82
2021/12/14 06:48:56;;;;;;;28.08;16.23;;;;;;;-3.30;94.84;100957.03;6087187;23;20017;-80
2021/12/14 06:51:27;;;;;;;32.08;15.48;;;;;;;-3.54;94.55;100925.97;6111473;23;20040;-80
2021/12/14 06:54:03;;;;;;;32.33;17.55;;;;;;;-3.54;94.55;100945.50;6114516;23;20522;-79
2021/12/14 06:56:56;;;;;;;29.55;15.10;;;;;;;-3.47;94.88;100953.31;6115075;23;20063;-80
2021/12/14 06:59:43;;;;;;;27.83;14.00;;;;;;;-3.41;94.87;100958.53;6179723;23;20103;-80
2021/12/14 07:02:09;;;;;;;29.33;14.68;;;;;;;-3.31;94.93;100955.34;6134248;23;20021;-79
2021/12/14 07:04:55;;;;;;;24.77;14.18;;;;;;;-3.33;94.34;100940.78;6159405;23;20052;-78
2021/12/14 07:07:26;;;;;;;28.13;14.15;;;;;;;-3.28;94.30;100950.28;6145855;23;20017;-79
2021/12/14 07:09:59;;;;;;;24.83;13.77;;;;;;;-3.23;94.12;100945.25;6146404;23;20051;-79
2021/12/14 07:12:27;;;;;;;22.75;14.32;;;;;;;-3.23;94.09;100928.22;6111003;23;20023;-79
2021/12/14 07:14:53;;;;;;;27.08;14.23;;;;;;;-3.31;93.98;100934.91;6130774;23;20083;-80
2021/12/14 07:17:27;;;;;;;31.15;15.95;;;;;;;-3.39;94.51;100931.34;6128740;23;20045;-79
2021/12/14 07:19:55;;;;;;;28.90;14.55;;;;;;;-3.30;94.45;100941.72;6130570;23;20495;-80
2021/12/14 07:22:32;;;;;;;28.98;16.13;;;;;;;-3.22;94.41;100952.06;6080124;23;20020;-79
2021/12/14 07:24:59;;;;;;;27.00;15.65;;;;;;;-3.22;94.36;100950.38;6152363;23;20056;-80
2021/12/14 07:27:27;;;;;;;26.65;14.48;;;;;;;-3.17;94.21;100943.66;6156014;23;20354;-81
2021/12/14 07:29:54;;;;;;;30.88;15.48;;;;;;;-3.16;93.79;100954.75;6108082;23;20048;-82
2021/12/14 07:32:49;;;;;;;31.10;15.18;;;;;;;-3.05;93.76;100954.94;6107281;23;20025;-81
2021/12/14 07:35:20;;;;;;;28.15;15.10;;;;;;;-3.11;93.97;100957.38;6143960;23;20450;-78
2021/12/14 07:37:47;;;;;;;33.38;15.57;;;;;;;-3.20;94.07;100958.94;6129406;23;20024;-77
2021/12/14 07:40:13;;;;;;;31.98;14.80;;;;;;;-3.20;93.94;100963.16;6080521;23;20032;-77
2021/12/14 07:42:39;;;;;;;29.48;17.77;;;;;;;-3.26;93.74;100958.81;6129651;23;20108;-76
2021/12/14 07:45:22;;;;;;;34.25;18.23;;;;;;;-3.45;94.00;100938.03;6104758;23;20103;-76
2021/12/14 07:47:54;;;;;;;42.35;19.70;;;;;;;-3.44;94.55;100976.34;6130884;23;20099;-81
2021/12/14 07:50:26;;;;;;;28.60;15.23;;;;;;;-3.42;94.66;100972.13;6160222;23;20017;-75
2021/12/14 07:52:52;;;;;;;30.60;15.65;;;;;;;-3.23;94.58;100974.19;6107005;23;20107;-79
2021/12/14 07:55:20;;;;;;;30.65;15.20;;;;;;;-3.23;93.77;100969.09;6113285;23;20076;-81
2021/12/14 07:57:47;;;;;;;34.05;17.13;;;;;;;-3.44;94.10;100937.22;6115053;23;20017;-81
2021/12/14 08:00:22;;;;;;;25.77;15.02;;;;;;;-3.09;93.75;100976.13;6114053;23;20410;-81
2021/12/14 08:02:51;;;;;;;31.23;15.65;;;;;;;-3.12;93.65;100960.75;6139589;23;20036;-79
2021/12/14 08:05:18;;;;;;;28.10;14.88;;;;;;;-2.91;93.75;100963.72;6113346;23;20021;-78
2021/12/14 08:08:16;;;;;;;39.58;15.70;;;;;;;-3.06;93.23;100955.75;6162321;23;20075;-82
2021/12/14 08:10:56;;;;;;;33.97;16.75;;;;;;;-3.03;93.74;100971.13;6169454;23;20017;-81
2021/12/14 08:13:24;;;;;;;30.50;16.40;;;;;;;-3.23;93.40;100948.66;6140699;23;20027;-82
2021/12/14 08:15:59;;;;;;;29.83;14.73;;;;;;;-2.94;93.25;100984.94;6137996;23;20083;-81
2021/12/14 08:18:32;;;;;;;30.83;15.43;;;;;;;-2.97;93.12;100963.56;6160889;23;20468;-82
2021/12/14 08:21:00;;;;;;;32.70;16.10;;;;;;;-3.04;92.44;100970.25;6161977;23;20095;-76
2021/12/14 08:23:32;;;;;;;32.55;18.15;;;;;;;-3.38;92.90;100963.69;6136858;23;20024;-81
2021/12/14 08:26:07;;;;;;;34.60;17.38;;;;;;;-3.41;93.59;100981.50;6114331;23;20021;-82
2021/12/14 08:28:44;;;;;;;39.10;19.67;;;;;;;-3.44;94.37;100971.25;6138299;23;20028;-82
2021/12/14 08:31:11;;;;;;;43.90;18.55;;;;;;;-3.55;94.69;100946.34;6116512;23;20032;-83
2021/12/14 08:33:37;;;;;;;47.63;22.02;;;;;;;-3.56;94.48;100963.31;6115751;23;20458;-83
2021/12/14 08:36:04;;;;;;;40.05;18.38;;;;;;;-3.52;94.80;100971.91;6164896;23;20020;-81
2021/12/14 08:38:33;;;;;;;41.17;18.50;;;;;;;-3.57;94.72;100971.84;6109210;23;20374;-82
2021/12/14 08:41:13;;;;;;;38.58;17.10;;;;;;;-3.50;95.25;100981.31;6133883;23;20067;-82
2021/12/14 08:43:47;;;;;;;36.00;18.10;;;;;;;-3.21;95.03;100992.94;6135473;23;20024;-79
2021/12/14 08:46:16;;;;;;;31.27;18.42;;;;;;;-3.35;94.11;100971.41;6133310;23;20021;-81
2021/12/14 08:49:00;;;;;;;38.08;18.13;;;;;;;-3.26;93.86;100986.91;6156094;23;20116;-82
2021/12/14 08:51:26;;;;;;;34.97;17.95;;;;;;;-3.28;93.51;100973.25;6132690;23;20049;-83
2021/12/14 08:53:59;;;;;;;38.35;17.35;;;;;;;-3.24;93.24;100982.66;6157025;23;20021;-83
2021/12/14 09:05:45;;;;;;;41.72;20.65;;;;;;;-3.08;91.61;100970.22;6164284;23;20048;-82
2021/12/14 09:08:12;;;;;;;41.95;20.23;;;;;;;-3.17;91.94;100964.09;6162321;23;20077;-83
2021/12/14 09:10:41;;;;;;;31.17;17.65;;;;;;;-2.94;91.87;100961.06;6106110;23;20017;-81
2021/12/14 09:13:09;;;;;;;42.03;21.60;;;;;;;-2.89;91.15;100969.69;6086942;23;20023;-80
2021/12/14 09:16:07;;;;;;;43.15;19.42;;;;;;;-2.39;91.05;100973.06;6089375;23;20028;-82
2021/12/14 09:18:36;;;;;;;34.35;17.90;;;;;;;-2.49;89.49;100977.19;6116953;23;20493;-83
2021/12/14 09:21:12;;;;;;;37.20;20.73;;;;;;;-2.52;88.84;100972.00;6091553;23;20049;-82
2021/12/14 09:23:41;;;;;;;44.97;23.15;;;;;;;-2.72;89.23;100958.94;6112778;23;20028;-83
2021/12/14 09:26:09;;;;;;;49.60;26.38;;;;;;;-2.57;89.07;100975.31;6090207;23;20021;-78
2021/12/14 09:28:35;;;;;;;47.28;24.48;;;;;;;-2.63;89.21;100965.88;6137851;23;20044;-81
2021/12/14 09:31:04;;;;;;;51.13;26.02;;;;;;;-2.34;88.17;100969.75;6113981;23;20017;-83
2021/12/14 09:33:30;;;;;;;44.65;23.67;;;;;;;-2.04;87.72;100969.31;6139213;23;20017;-82
2021/12/14 09:35:57;;;;;;;42.20;22.08;;;;;;;-2.03;86.55;100970.19;6090486;23;20021;-83
2021/12/14 09:38:32;;;;;;;40.92;20.23;;;;;;;-2.13;87.34;100962.38;6065843;23;20579;-82
2021/12/14 09:41:02;;;;;;;38.95;20.35;;;;;;;-1.88;86.06;100965.28;6115163;23;20068;-83
2021/12/14 09:43:28;;;;;;;38.25;20.38;;;;;;;-2.38;86.76;100962.84;6088292;23;20021;-82
2021/12/14 09:45:57;;;;;;;45.88;22.45;;;;;;;-2.52;87.78;100951.56;6086600;23;20024;-83
2021/12/14 09:48:27;;;;;;;37.55;19.23;;;;;;;-2.01;88.55;100960.81;6159390;23;20040;-82
2021/12/14 09:50:54;;;;;;;44.97;21.25;;;;;;;-2.09;86.55;100965.00;6084784;23;20018;-82
2021/12/14 09:53:22;;;;;;;33.20;19.13;;;;;;;-2.17;86.52;100955.50;6158501;23;20040;-82
2021/12/14 09:55:49;;;;;;;39.90;20.35;;;;;;;-2.22;86.40;100946.91;6085220;23;20108;-82
2021/12/14 09:58:21;;;;;;;31.77;17.23;;;;;;;-2.11;87.09;100958.16;6139521;23;20078;-83
2021/12/14 10:01:05;;;;;;;42.78;21.63;;;;;;;-2.58;87.25;100907.19;6144118;23;20031;-81
2021/12/14 10:03:32;;;;;;;41.15;22.13;;;;;;;-2.59;88.16;100960.00;6095759;23;20049;-82
2021/12/14 10:06:01;;;;;;;40.90;19.35;;;;;;;-2.66;89.32;100955.59;6117538;23;20516;-81
2021/12/14 10:08:43;;;;;;;37.10;20.40;;;;;;;-2.50;89.40;100962.69;6091557;23;20021;-82
2021/12/14 10:11:34;;;;;;;39.67;20.42;;;;;;;-2.72;88.82;100960.63;6095637;23;20022;-83
2021/12/14 10:14:01;;;;;;;37.70;17.67;;;;;;;-2.80;90.11;100952.81;6095523;23;20032;-84
2021/12/14 10:16:27;;;;;;;33.33;17.90;;;;;;;-2.46;89.68;100959.34;6093146;23;20028;-80
2021/12/14 10:18:56;;;;;;;37.10;20.38;;;;;;;-2.63;89.50;100953.09;6115380;23;20107;-80
2021/12/14 10:21:37;;;;;;;42.65;20.73;;;;;;;-2.47;89.06;100962.72;6105050;23;20028;-75
2021/12/14 10:24:03;;;;;;;37.45;19.13;;;;;;;-2.64;88.79;100938.59;6076428;23;20025;-75
2021/12/14 10:26:30;;;;;;;45.45;22.42;;;;;;;-2.75;89.12;100968.25;6100316;23;20075;-74
2021/12/14 10:29:02;;;;;;;39.47;19.42;;;;;;;-2.82;89.98;100944.28;6105324;23;20021;-76
2021/12/14 10:31:36;;;;;;;40.10;21.95;;;;;;;-2.67;89.43;100941.09;6140005;23;20021;-79
2021/12/14 10:34:05;;;;;;;35.88;20.55;;;;;;;-2.74;89.11;100954.59;6138924;23;20072;-78
2021/12/14 10:36:40;;;;;;;35.83;18.40;;;;;;;-2.73;89.21;100964.00;6086745;23;20104;-77
2021/12/14 10:44:31;;;;;;;37.10;17.55;;;;;;;-2.73;90.14;100956.34;6083557;23;20306;-78
2021/12/14 10:46:57;;;;;;;35.30;19.77;;;;;;;-2.76;89.66;100966.50;6128402;23;20017;-84
2021/12/14 10:49:25;;;;;;;44.78;23.35;;;;;;;-2.91;88.88;100943.28;6093177;23;20025;-83
2021/12/14 10:51:56;;;;;;;44.80;24.40;;;;;;;-2.70;89.03;100966.59;6141241;23;20036;-82
2021/12/14 10:54:22;;;;;;;36.63;15.68;;;;;;;-2.64;89.80;100959.91;6094231;23;20081;-83
2021/12/14 10:56:57;;;;;;;49.15;23.95;;;;;;;-2.77;88.61;100965.66;6159044;23;20049;-79
2021/12/14 10:59:38;;;;;;;43.88;21.85;;;;;;;-2.73;88.82;100961.44;6130474;23;20076;-80
2021/12/14 11:02:05;;;;;;;47.28;24.98;;;;;;;-2.86;89.10;100975.72;6151049;23;20049;-78
2021/12/14 11:04:40;;;;;;;50.13;26.33;;;;;;;-3.04;89.30;100946.44;6088785;23;20025;-80
2021/12/14 11:07:25;;;;;;;52.65;24.65;;;;;;;-2.93;89.40;100955.13;6150380;23;20104;-77
2021/12/14 11:09:55;;;;;;;41.70;23.15;;;;;;;-2.86;88.77;100964.63;6133152;23;20032;-81
2021/12/14 11:12:28;;;;;;;42.78;22.17;;;;;;;-2.82;89.41;100972.38;6128521;23;20013;-81
2021/12/14 11:15:11;;;;;;;44.58;23.10;;;;;;;-2.77;89.75;100975.00;6126727;23;20017;-81
2021/12/14 11:20:24;;;;;;;39.63;20.40;;;;;;;-2.75;89.87;100968.25;6151799;23;20387;-79
2021/12/14 11:23:02;;;;;;;43.97;22.73;;;;;;;-2.74;89.26;100954.59;6150355;23;20104;-79
2021/12/14 11:25:33;;;;;;;54.17;23.27;;;;;;;-2.79;89.43;100959.66;6155981;23;20028;-77
2021/12/14 11:28:09;;;;;;;45.35;22.95;;;;;;;-2.87;90.12;100947.56;6135036;23;20108;-80
2021/12/14 11:31:11;;;;;;;55.05;28.45;;;;;;;-2.99;90.06;100947.38;6152298;23;20021;-81
2021/12/14 11:33:44;;;;;;;52.33;22.60;;;;;;;-2.95;90.31;100937.25;6081760;23;20021;-82
2021/12/14 11:36:38;;;;;;;60.47;27.98;;;;;;;-3.02;90.74;100926.91;6163127;23;20021;-82
2021/12/14 11:39:07;;;;;;;48.88;23.67;;;;;;;-3.07;91.05;100936.16;6089149;23;20022;-81
2021/12/14 11:41:36;;;;;;;57.30;26.40;;;;;;;-2.96;91.16;100937.22;6138232;23;20025;-78
2021/12/14 11:44:15;;;;;;;45.47;23.92;;;;;;;-2.95;91.49;100929.59;6126554;23;20044;-82
2021/12/14 11:47:00;;;;;;;54.95;23.85;;;;;;;-2.93;91.24;100934.72;6108728;23;20001;-81
2021/12/14 11:49:40;;;;;;;47.17;22.38;;;;;;;-2.88;91.54;100921.16;6102112;23;20137;-81
2021/12/14 11:52:07;;;;;;;42.47;21.30;;;;;;;-2.92;91.36;100921.13;6159916;23;20591;-81
2021/12/14 11:54:46;;;;;;;47.63;22.77;;;;;;;-2.94;91.16;100928.72;6103819;23;20080;-78
2021/12/14 11:57:14;;;;;;;48.83;24.52;;;;;;;-2.96;91.30;100930.41;6107975;23;20018;-81
2021/12/14 11:59:40;;;;;;;55.22;24.88;;;;;;;-2.92;91.59;100937.31;6103871;23;20021;-79
2021/12/14 12:02:06;;;;;;;42.78;21.73;;;;;;;-2.85;91.85;100940.81;6147064;23;20025;-79
2021/12/14 12:04:35;;;;;;;50.25;24.65;;;;;;;-2.91;92.11;100935.63;6098856;23;20021;-79
2021/12/14 12:09:50;;;;;;;37.60;22.20;;;;;;;-2.90;92.17;100939.88;6123829;23;20025;-80
2021/12/14 12:12:19;;;;;;;48.28;25.02;;;;;;;-2.99;92.20;100926.94;6123256;23;20481;-80
2021/12/14 12:14:47;;;;;;;49.38;24.33;;;;;;;-3.01;92.30;100949.06;6134709;23;20021;-77
2021/12/14 12:17:19;;;;;;;48.10;23.92;;;;;;;-2.96;93.37;100938.06;6106836;23;20040;-82
2021/12/14 12:20:18;;;;;;;51.78;25.23;;;;;;;-3.05;93.36;100924.28;6120286;23;20017;-81
2021/12/14 12:22:52;;;;;;;51.03;24.95;;;;;;;-3.24;93.10;100908.63;6087181;23;20088;-81
2021/12/14 12:25:38;;;;;;;53.78;24.73;;;;;;;-3.00;93.51;100940.53;6110669;23;20049;-80
2021/12/14 12:28:22;;;;;;;60.40;27.65;;;;;;;-3.00;93.37;100937.97;6111476;23;20025;-81